sensor_id;sensor_type;location;lat;lon;timestamp;pressure;altitude;pressure_sealevel;temperature;humidity
12172;BME280;6149;52.418;13.668;2024-03-06T00:02:04;101578.72;;;-1.85;100.00
12172;BME280;6149;52.418;13.668;2024-03-06T00:04:32;101573.53;;;-1.88;100.00
12172;BME280;6149;52.418;13.668;2024-03-06T00:06:58;101573.53;;;-1.88;100.00
12172;BME280;6149;52.418;13.668;2024-03-06T00:09:25;101580.44;;;-1.89;100.00
12172;BME280;6149;52.418;13.668;2024-03-06T00:11:53;101576.09;;;-1.91;100.00
12172;BME280;6149;52.418;13.668;2024-03-06T00:14:19;101583.81;;;-1.94;100.00
12172;BME280;6149;52.418;13.668;2024-03-06T00:16:48;101586.38;;;-1.96;100.00
12172;BME280;6149;52.418;13.668;2024-03-06T00:19:16;101584.63;;;-1.98;100.00
12172;BME280;6149;52.418;13.668;2024-03-06T00:21:44;101591.53;;;-1.99;100.00
12172;BME280;6149;52.418;13.668;2024-03-06T00:24:11;101597.56;;;-2.00;100.00
12172;BME280;6149;52.418;13.668;2024-03-06T00:26:39;101603.56;;;-2.03;100.00
12172;BME280;6149;52.418;13.668;2024-03-06T00:29:06;101606.09;;;-2.06;100.00
12172;BME280;6149;52.418;13.668;2024-03-06T00:31:32;101611.28;;;-2.07;100.00
12172;BME280;6149;52.418;13.668;2024-03-06T00:33:59;101614.69;;;-2.10;100.00
12172;BME280;6149;52.418;13.668;2024-03-06T00:36:25;101624.16;;;-2.10;100.00
12172;BME280;6149;52.418;13.668;2024-03-06T00:38:54;101624.13;;;-2.13;100.00
12172;BME280;6149;52.418;13.668;2024-03-06T00:41:20;101634.50;;;-2.13;100.00
12172;BME280;6149;52.418;13.668;2024-03-06T00:43:50;101627.53;;;-2.16;100.00
12172;BME280;6149;52.418;13.668;2024-03-06T00:46:16;101643.94;;;-2.17;100.00
12172;BME280;6149;52.418;13.668;2024-03-06T00:48:43;101645.63;;;-2.19;100.00
12172;BME280;6149;52.418;13.668;2024-03-06T00:51:09;101636.94;;;-2.21;100.00
12172;BME280;6149;52.418;13.668;2024-03-06T00:53:36;101637.81;;;-2.22;100.00
12172;BME280;6149;52.418;13.668;2024-03-06T00:56:04;101637.78;;;-2.25;100.00
12172;BME280;6149;52.418;13.668;2024-03-06T00:58:32;101635.16;;;-2.26;100.00
12172;BME280;6149;52.418;13.668;2024-03-06T01:00:58;101639.44;;;-2.28;100.00
12172;BME280;6149;52.418;13.668;2024-03-06T01:03:25;101636.88;;;-2.28;100.00
12172;BME280;6149;52.418;13.668;2024-03-06T01:05:51;101640.28;;;-2.29;100.00
12172;BME280;6149;52.418;13.668;2024-03-06T01:08:18;101642.88;;;-2.31;100.00
12172;BME280;6149;52.418;13.668;2024-03-06T01:10:45;101642.00;;;-2.31;100.00
12172;BME280;6149;52.418;13.668;2024-03-06T01:13:13;101645.44;;;-2.31;100.00
12172;BME280;6149;52.418;13.668;2024-03-06T01:15:39;101648.88;;;-2.33;100.00
12172;BME280;6149;52.418;13.668;2024-03-06T01:18:06;101652.28;;;-2.34;100.00
12172;BME280;6149;52.418;13.668;2024-03-06T01:20:32;101643.66;;;-2.35;100.00
12172;BME280;6149;52.418;13.668;2024-03-06T01:22:59;101651.41;;;-2.37;100.00
12172;BME280;6149;52.418;13.668;2024-03-06T01:25:25;101654.84;;;-2.38;100.00
12172;BME280;6149;52.418;13.668;2024-03-06T01:27:52;101654.84;;;-2.38;100.00
12172;BME280;6149;52.418;13.668;2024-03-06T01:30:20;101656.50;;;-2.41;100.00
12172;BME280;6149;52.418;13.668;2024-03-06T01:32:46;101660.78;;;-2.43;100.00
12172;BME280;6149;52.418;13.668;2024-03-06T01:35:13;101659.91;;;-2.44;100.00
12172;BME280;6149;52.418;13.668;2024-03-06T01:37:40;101664.22;;;-2.44;100.00
12172;BME280;6149;52.418;13.668;2024-03-06T01:40:07;101663.28;;;-2.48;100.00
12172;BME280;6149;52.418;13.668;2024-03-06T01:42:35;101668.44;;;-2.49;100.00
12172;BME280;6149;52.418;13.668;2024-03-06T01:45:03;101667.53;;;-2.51;100.00
12172;BME280;6149;52.418;13.668;2024-03-06T01:47:31;101670.09;;;-2.53;100.00
12172;BME280;6149;52.418;13.668;2024-03-06T01:49:59;101671.78;;;-2.55;100.00
12172;BME280;6149;52.418;13.668;2024-03-06T01:52:26;101671.75;;;-2.56;100.00
12172;BME280;6149;52.418;13.668;2024-03-06T01:54:53;101669.16;;;-2.58;100.00
12172;BME280;6149;52.418;13.668;2024-03-06T01:57:21;101672.59;;;-2.57;100.00
12172;BME280;6149;52.418;13.668;2024-03-06T01:59:48;101671.72;;;-2.61;100.00
12172;BME280;6149;52.418;13.668;2024-03-06T02:02:15;101675.97;;;-2.63;100.00
12172;BME280;6149;52.418;13.668;2024-03-06T02:04:43;101675.13;;;-2.63;100.00
12172;BME280;6149;52.418;13.668;2024-03-06T02:07:10;101668.16;;;-2.66;100.00
12172;BME280;6149;52.418;13.668;2024-03-06T02:09:37;101673.31;;;-2.67;100.00
12172;BME280;6149;52.418;13.668;2024-03-06T02:12:04;101673.28;;;-2.69;100.00
12172;BME280;6149;52.418;13.668;2024-03-06T02:14:33;101658.59;;;-2.70;100.00
12172;BME280;6149;52.418;13.668;2024-03-06T02:17:00;101663.75;;;-2.72;100.00
12172;BME280;6149;52.418;13.668;2024-03-06T02:19:37;101670.63;;;-2.72;100.00
12172;BME280;6149;52.418;13.668;2024-03-06T02:22:06;101671.47;;;-2.73;100.00
12172;BME280;6149;52.418;13.668;2024-03-06T02:24:33;101666.28;;;-2.75;100.00
12172;BME280;6149;52.418;13.668;2024-03-06T02:26:59;101679.22;;;-2.75;100.00
12172;BME280;6149;52.418;13.668;2024-03-06T02:29:26;101669.69;;;-2.77;100.00
12172;BME280;6149;52.418;13.668;2024-03-06T02:31:53;101671.38;;;-2.79;100.00
12172;BME280;6149;52.418;13.668;2024-03-06T02:34:19;101672.19;;;-2.82;100.00
12172;BME280;6149;52.418;13.668;2024-03-06T02:36:46;101673.91;;;-2.82;100.00
12172;BME280;6149;52.418;13.668;2024-03-06T02:39:14;101682.50;;;-2.83;100.00
12172;BME280;6149;52.418;13.668;2024-03-06T02:41:40;101686.81;;;-2.84;100.00
12172;BME280;6149;52.418;13.668;2024-03-06T02:44:07;101681.59;;;-2.85;100.00
12172;BME280;6149;52.418;13.668;2024-03-06T02:46:33;101682.41;;;-2.88;100.00
12172;BME280;6149;52.418;13.668;2024-03-06T02:49:00;101684.94;;;-2.91;100.00
12172;BME280;6149;52.418;13.668;2024-03-06T02:51:27;101682.28;;;-2.94;100.00
12172;BME280;6149;52.418;13.668;2024-03-06T02:53:53;101686.59;;;-2.94;100.00
12172;BME280;6149;52.418;13.668;2024-03-06T02:56:21;101681.38;;;-2.96;100.00
12172;BME280;6149;52.418;13.668;2024-03-06T02:58:47;101685.69;;;-2.98;100.00
12172;BME280;6149;52.418;13.668;2024-03-06T03:01:14;101679.63;;;-3.00;100.00
12172;BME280;6149;52.418;13.668;2024-03-06T03:03:41;101686.50;;;-3.00;100.00
12172;BME280;6149;52.418;13.668;2024-03-06T03:06:09;101687.34;;;-3.01;100.00
12172;BME280;6149;52.418;13.668;2024-03-06T03:08:37;101689.97;;;-3.00;100.00
12172;BME280;6149;52.418;13.668;2024-03-06T03:11:03;101689.06;;;-3.02;100.00
12172;BME280;6149;52.418;13.668;2024-03-06T03:13:31;101692.47;;;-3.03;100.00
12172;BME280;6149;52.418;13.668;2024-03-06T03:15:58;101695.03;;;-3.05;100.00
12172;BME280;6149;52.418;13.668;2024-03-06T03:18:24;101695.88;;;-3.06;100.00
12172;BME280;6149;52.418;13.668;2024-03-06T03:20:51;101700.16;;;-3.08;100.00
12172;BME280;6149;52.418;13.668;2024-03-06T03:23:17;101700.16;;;-3.08;100.00
12172;BME280;6149;52.418;13.668;2024-03-06T03:25:47;101701.00;;;-3.09;100.00
12172;BME280;6149;52.418;13.668;2024-03-06T03:28:14;101705.25;;;-3.11;100.00
12172;BME280;6149;52.418;13.668;2024-03-06T03:30:43;101716.44;;;-3.12;100.00
12172;BME280;6149;52.418;13.668;2024-03-06T03:33:10;101712.06;;;-3.14;100.00
12172;BME280;6149;52.418;13.668;2024-03-06T03:35:37;101715.53;;;-3.14;100.00
12172;BME280;6149;52.418;13.668;2024-03-06T03:38:04;101715.47;;;-3.17;100.00
12172;BME280;6149;52.418;13.668;2024-03-06T03:40:30;101722.31;;;-3.19;100.00
12172;BME280;6149;52.418;13.668;2024-03-06T03:42:58;101718.88;;;-3.19;100.00
12172;BME280;6149;52.418;13.668;2024-03-06T03:45:24;101729.19;;;-3.21;100.00
12172;BME280;6149;52.418;13.668;2024-03-06T03:47:52;101723.13;;;-3.21;100.00
12172;BME280;6149;52.418;13.668;2024-03-06T03:50:18;101725.72;;;-3.21;100.00
12172;BME280;6149;52.418;13.668;2024-03-06T03:52:45;101732.59;;;-3.22;100.00
12172;BME280;6149;52.418;13.668;2024-03-06T03:55:11;101726.56;;;-3.22;100.00
12172;BME280;6149;52.418;13.668;2024-03-06T03:57:38;101729.97;;;-3.23;100.00
12172;BME280;6149;52.418;13.668;2024-03-06T04:00:06;101729.09;;;-3.25;100.00
12172;BME280;6149;52.418;13.668;2024-03-06T04:02:36;101721.25;;;-3.28;100.00
12172;BME280;6149;52.418;13.668;2024-03-06T04:05:05;101731.56;;;-3.30;100.00
12172;BME280;6149;52.418;13.668;2024-03-06T04:07:32;101729.84;;;-3.29;100.00
12172;BME280;6149;52.418;13.668;2024-03-06T04:09:59;101735.03;;;-3.29;100.00
12172;BME280;6149;52.418;13.668;2024-03-06T04:12:26;101733.28;;;-3.30;100.00
12172;BME280;6149;52.418;13.668;2024-03-06T04:14:52;101743.63;;;-3.30;100.00
12172;BME280;6149;52.418;13.668;2024-03-06T04:17:19;101741.00;;;-3.32;100.00
12172;BME280;6149;52.418;13.668;2024-03-06T04:19:46;101736.66;;;-3.33;100.00
12172;BME280;6149;52.418;13.668;2024-03-06T04:22:14;101740.97;;;-3.35;100.00
12172;BME280;6149;52.418;13.668;2024-03-06T04:24:44;101740.06;;;-3.37;100.00
12172;BME280;6149;52.418;13.668;2024-03-06T04:27:11;101741.72;;;-3.39;100.00
12172;BME280;6149;52.418;13.668;2024-03-06T04:29:37;101742.56;;;-3.40;100.00
12172;BME280;6149;52.418;13.668;2024-03-06T04:32:04;101744.28;;;-3.41;100.00
12172;BME280;6149;52.418;13.668;2024-03-06T04:34:31;101745.97;;;-3.43;100.00
12172;BME280;6149;52.418;13.668;2024-03-06T04:36:57;101739.03;;;-3.44;100.00
12172;BME280;6149;52.418;13.668;2024-03-06T04:39:26;101743.31;;;-3.46;100.00
12172;BME280;6149;52.418;13.668;2024-03-06T04:41:53;101742.41;;;-3.48;100.00
12172;BME280;6149;52.418;13.668;2024-03-06T04:44:20;101750.13;;;-3.49;100.00
12172;BME280;6149;52.418;13.668;2024-03-06T04:46:49;101748.41;;;-3.49;100.00
12172;BME280;6149;52.418;13.668;2024-03-06T04:49:16;101748.41;;;-3.49;100.00
12172;BME280;6149;52.418;13.668;2024-03-06T04:51:42;101756.13;;;-3.50;100.00
12172;BME280;6149;52.418;13.668;2024-03-06T04:54:09;101763.84;;;-3.52;100.00
12172;BME280;6149;52.418;13.668;2024-03-06T04:56:37;101762.97;;;-3.52;100.00
12172;BME280;6149;52.418;13.668;2024-03-06T04:59:03;101759.50;;;-3.53;100.00
12172;BME280;6149;52.418;13.668;2024-03-06T05:01:30;101768.13;;;-3.52;100.00
12172;BME280;6149;52.418;13.668;2024-03-06T05:03:57;101774.16;;;-3.53;100.00
12172;BME280;6149;52.418;13.668;2024-03-06T05:06:24;101768.06;;;-3.55;100.00
12172;BME280;6149;52.418;13.668;2024-03-06T05:08:51;101777.53;;;-3.56;100.00
12172;BME280;6149;52.418;13.668;2024-03-06T05:11:17;101776.63;;;-3.58;100.00
12172;BME280;6149;52.418;13.668;2024-03-06T05:13:48;101779.13;;;-3.61;100.00
12172;BME280;6149;52.418;13.668;2024-03-06T05:16:15;101777.38;;;-3.62;100.00
12172;BME280;6149;52.418;13.668;2024-03-06T05:18:41;101777.34;;;-3.63;100.00
12172;BME280;6149;52.418;13.668;2024-03-06T05:21:08;101780.75;;;-3.64;100.00
12172;BME280;6149;52.418;13.668;2024-03-06T05:23:35;101795.44;;;-3.63;100.00
12172;BME280;6149;52.418;13.668;2024-03-06T05:26:01;101799.78;;;-3.62;100.00
12172;BME280;6149;52.418;13.668;2024-03-06T05:28:28;101803.22;;;-3.62;100.00
12172;BME280;6149;52.418;13.668;2024-03-06T05:30:56;101804.03;;;-3.64;100.00
12172;BME280;6149;52.418;13.668;2024-03-06T05:33:23;101803.94;;;-3.67;100.00
12172;BME280;6149;52.418;13.668;2024-03-06T05:35:49;101799.56;;;-3.70;100.00
12172;BME280;6149;52.418;13.668;2024-03-06T05:38:16;101807.31;;;-3.72;100.00
12172;BME280;6149;52.418;13.668;2024-03-06T05:40:44;101812.47;;;-3.73;100.00
12172;BME280;6149;52.418;13.668;2024-03-06T05:43:11;101815.91;;;-3.73;100.00
12172;BME280;6149;52.418;13.668;2024-03-06T05:45:38;101817.63;;;-3.73;100.00
12172;BME280;6149;52.418;13.668;2024-03-06T05:48:06;101818.50;;;-3.73;100.00
12172;BME280;6149;52.418;13.668;2024-03-06T05:50:33;101819.38;;;-3.72;100.00
12172;BME280;6149;52.418;13.668;2024-03-06T05:53:00;101816.78;;;-3.71;100.00
12172;BME280;6149;52.418;13.668;2024-03-06T05:55:26;101825.41;;;-3.70;100.00
12172;BME280;6149;52.418;13.668;2024-03-06T05:57:53;101831.47;;;-3.70;100.00
12172;BME280;6149;52.418;13.668;2024-03-06T06:00:20;101838.38;;;-3.68;100.00
12172;BME280;6149;52.418;13.668;2024-03-06T06:02:47;101847.03;;;-3.66;100.00
12172;BME280;6149;52.418;13.668;2024-03-06T06:05:15;101843.63;;;-3.65;100.00
12172;BME280;6149;52.418;13.668;2024-03-06T06:07:45;101840.25;;;-3.63;100.00
12172;BME280;6149;52.418;13.668;2024-03-06T06:10:11;101843.78;;;-3.59;100.00
12172;BME280;6149;52.418;13.668;2024-03-06T06:12:38;101845.59;;;-3.55;100.00
12172;BME280;6149;52.418;13.668;2024-03-06T06:15:05;101850.94;;;-3.49;100.00
12172;BME280;6149;52.418;13.668;2024-03-06T06:17:33;101845.00;;;-3.45;100.00
12172;BME280;6149;52.418;13.668;2024-03-06T06:20:00;101845.06;;;-3.42;100.00
12172;BME280;6149;52.418;13.668;2024-03-06T06:22:28;101864.19;;;-3.35;100.00
12172;BME280;6149;52.418;13.668;2024-03-06T06:24:54;101854.84;;;-3.29;100.00
12172;BME280;6149;52.418;13.668;2024-03-06T06:27:22;101863.66;;;-3.21;100.00
12172;BME280;6149;52.418;13.668;2024-03-06T06:29:50;101860.38;;;-3.14;100.00
12172;BME280;6149;52.418;13.668;2024-03-06T06:32:18;101858.81;;;-3.07;100.00
12172;BME280;6149;52.418;13.668;2024-03-06T06:34:44;101860.75;;;-2.98;100.00
12172;BME280;6149;52.418;13.668;2024-03-06T06:37:12;101867.75;;;-2.91;100.00
12172;BME280;6149;52.418;13.668;2024-03-06T06:39:41;101866.22;;;-2.83;100.00
12172;BME280;6149;52.418;13.668;2024-03-06T06:42:07;101866.34;;;-2.77;100.00
12172;BME280;6149;52.418;13.668;2024-03-06T06:44:36;101868.28;;;-2.68;100.00
12172;BME280;6149;52.418;13.668;2024-03-06T06:47:02;101871.06;;;-2.58;100.00
12172;BME280;6149;52.418;13.668;2024-03-06T06:49:29;101875.56;;;-2.49;100.00
12172;BME280;6149;52.418;13.668;2024-03-06T06:51:55;101874.06;;;-2.40;100.00
12172;BME280;6149;52.418;13.668;2024-03-06T06:54:22;101869.03;;;-2.32;100.00
12172;BME280;6149;52.418;13.668;2024-03-06T06:56:50;101879.56;;;-2.21;100.00
12172;BME280;6149;52.418;13.668;2024-03-06T06:59:17;101880.63;;;-2.12;100.00
12172;BME280;6149;52.418;13.668;2024-03-06T07:01:45;101884.28;;;-2.02;100.00
12172;BME280;6149;52.418;13.668;2024-03-06T07:04:12;101887.91;;;-1.92;100.00
12172;BME280;6149;52.418;13.668;2024-03-06T07:06:41;101891.56;;;-1.81;100.00
12172;BME280;6149;52.418;13.668;2024-03-06T07:09:08;101897.00;;;-1.67;100.00
12172;BME280;6149;52.418;13.668;2024-03-06T07:11:34;101895.53;;;-1.53;100.00
12172;BME280;6149;52.418;13.668;2024-03-06T07:14:02;101898.25;;;-1.44;100.00
12172;BME280;6149;52.418;13.668;2024-03-06T07:16:29;101895.84;;;-1.33;100.00
12172;BME280;6149;52.418;13.668;2024-03-06T07:18:55;101898.63;;;-1.23;100.00
12172;BME280;6149;52.418;13.668;2024-03-06T07:21:22;101906.56;;;-1.14;100.00
12172;BME280;6149;52.418;13.668;2024-03-06T07:23:48;101911.84;;;-1.05;100.00
12172;BME280;6149;52.418;13.668;2024-03-06T07:26:15;101903.28;;;-0.99;100.00
12172;BME280;6149;52.418;13.668;2024-03-06T07:28:42;101906.88;;;-0.91;100.00
12172;BME280;6149;52.418;13.668;2024-03-06T07:31:10;101906.16;;;-0.82;100.00
12172;BME280;6149;52.418;13.668;2024-03-06T07:33:36;101903.66;;;-0.76;100.00
12172;BME280;6149;52.418;13.668;2024-03-06T07:36:04;101902.81;;;-0.71;100.00
12172;BME280;6149;52.418;13.668;2024-03-06T07:38:31;101914.19;;;-0.64;100.00
12172;BME280;6149;52.418;13.668;2024-03-06T07:40:57;101919.53;;;-0.53;100.00
12172;BME280;6149;52.418;13.668;2024-03-06T07:43:24;101915.28;;;-0.47;100.00
12172;BME280;6149;52.418;13.668;2024-03-06T07:45:51;101920.53;;;-0.44;100.00
12172;BME280;6149;52.418;13.668;2024-03-06T07:48:20;101912.81;;;-0.35;100.00
12172;BME280;6149;52.418;13.668;2024-03-06T07:50:46;101914.69;;;-0.26;100.00
12172;BME280;6149;52.418;13.668;2024-03-06T07:53:13;101919.97;;;-0.18;100.00
12172;BME280;6149;52.418;13.668;2024-03-06T07:55:39;101925.25;;;-0.12;100.00
12172;BME280;6149;52.418;13.668;2024-03-06T07:58:06;101918.41;;;-0.04;100.00
12172;BME280;6149;52.418;13.668;2024-03-06T08:00:33;101928.06;;;0.08;100.00
12172;BME280;6149;52.418;13.668;2024-03-06T08:03:00;101920.41;;;0.21;100.00
12172;BME280;6149;52.418;13.668;2024-03-06T08:05:28;101926.59;;;0.32;100.00
12172;BME280;6149;52.418;13.668;2024-03-06T08:07:55;101927.53;;;0.41;100.00
12172;BME280;6149;52.418;13.668;2024-03-06T08:10:21;101929.34;;;0.48;100.00
12172;BME280;6149;52.418;13.668;2024-03-06T08:12:48;101928.59;;;0.59;100.00
12172;BME280;6149;52.418;13.668;2024-03-06T08:15:14;101928.69;;;0.70;100.00
12172;BME280;6149;52.418;13.668;2024-03-06T08:17:42;101934.81;;;0.80;100.00
12172;BME280;6149;52.418;13.668;2024-03-06T08:20:10;101937.53;;;0.93;100.00
12172;BME280;6149;52.418;13.668;2024-03-06T08:22:39;101934.09;;;0.97;100.00
12172;BME280;6149;52.418;13.668;2024-03-06T08:25:08;101936.78;;;1.05;100.00
12172;BME280;6149;52.418;13.668;2024-03-06T08:27:37;101937.72;;;1.18;100.00
12172;BME280;6149;52.418;13.668;2024-03-06T08:30:06;101942.91;;;1.18;100.00
12172;BME280;6149;52.418;13.668;2024-03-06T08:32:34;101938.66;;;1.27;100.00
12172;BME280;6149;52.418;13.668;2024-03-06T08:35:02;101942.22;;;1.40;100.00
12172;BME280;6149;52.418;13.668;2024-03-06T08:37:31;101946.59;;;1.50;100.00
12172;BME280;6149;52.418;13.668;2024-03-06T08:39:59;101943.16;;;1.59;100.00
12172;BME280;6149;52.418;13.668;2024-03-06T08:42:26;101947.59;;;1.72;100.00
12172;BME280;6149;52.418;13.668;2024-03-06T08:44:53;101949.38;;;1.84;100.00
12172;BME280;6149;52.418;13.668;2024-03-06T08:47:20;101959.00;;;2.03;100.00
12172;BME280;6149;52.418;13.668;2024-03-06T08:49:46;101948.63;;;2.18;100.00
12172;BME280;6149;52.418;13.668;2024-03-06T08:52:13;101960.88;;;2.41;100.00
12172;BME280;6149;52.418;13.668;2024-03-06T08:54:40;101960.91;;;2.56;100.00
12172;BME280;6149;52.418;13.668;2024-03-06T08:57:09;101962.66;;;2.77;100.00
12172;BME280;6149;52.418;13.668;2024-03-06T08:59:36;101971.38;;;2.97;100.00
12172;BME280;6149;52.418;13.668;2024-03-06T09:02:12;101976.59;;;3.17;100.00
12172;BME280;6149;52.418;13.668;2024-03-06T09:04:40;101971.31;;;3.41;100.00
12172;BME280;6149;52.418;13.668;2024-03-06T09:07:06;101987.84;;;3.63;100.00
12172;BME280;6149;52.418;13.668;2024-03-06T09:09:33;101979.94;;;3.84;100.00
12172;BME280;6149;52.418;13.668;2024-03-06T09:12:00;101984.22;;;4.08;100.00
12172;BME280;6149;52.418;13.668;2024-03-06T09:14:28;101985.81;;;4.36;100.00
12172;BME280;6149;52.418;13.668;2024-03-06T09:16:55;101985.66;;;4.59;100.00
12172;BME280;6149;52.418;13.668;2024-03-06T09:19:21;101995.16;;;4.80;100.00
12172;BME280;6149;52.418;13.668;2024-03-06T09:21:48;101999.34;;;5.02;100.00
12172;BME280;6149;52.418;13.668;2024-03-06T09:24:15;101997.53;;;5.09;100.00
12172;BME280;6149;52.418;13.668;2024-03-06T09:26:41;101998.38;;;5.14;100.00
12172;BME280;6149;52.418;13.668;2024-03-06T09:29:10;102003.59;;;5.19;100.00
12172;BME280;6149;52.418;13.668;2024-03-06T09:31:38;102004.50;;;5.15;100.00
12172;BME280;6149;52.418;13.668;2024-03-06T09:34:04;102003.66;;;5.11;100.00
12172;BME280;6149;52.418;13.668;2024-03-06T09:36:31;102003.75;;;4.97;100.00
12172;BME280;6149;52.418;13.668;2024-03-06T09:38:58;102001.19;;;4.88;100.00
12172;BME280;6149;52.418;13.668;2024-03-06T09:41:25;102003.88;;;4.82;100.00
12172;BME280;6149;52.418;13.668;2024-03-06T09:43:51;102005.56;;;4.86;100.00
12172;BME280;6149;52.418;13.668;2024-03-06T09:46:18;102004.75;;;4.81;100.00
12172;BME280;6149;52.418;13.668;2024-03-06T09:48:47;102005.63;;;4.80;100.00
12172;BME280;6149;52.418;13.668;2024-03-06T09:51:15;102007.38;;;4.81;100.00
12172;BME280;6149;52.418;13.668;2024-03-06T09:53:41;102005.53;;;4.91;100.00
12172;BME280;6149;52.418;13.668;2024-03-06T09:56:09;102005.44;;;5.03;100.00
12172;BME280;6149;52.418;13.668;2024-03-06T09:58:36;102009.75;;;5.13;100.00
12172;BME280;6149;52.418;13.668;2024-03-06T10:01:03;102011.50;;;5.14;100.00
12172;BME280;6149;52.418;13.668;2024-03-06T10:03:32;102012.31;;;5.19;100.00
12172;BME280;6149;52.418;13.668;2024-03-06T10:06:00;102010.44;;;5.32;100.00
12172;BME280;6149;52.418;13.668;2024-03-06T10:08:27;102012.13;;;5.39;100.00
12172;BME280;6149;52.418;13.668;2024-03-06T10:10:53;102011.25;;;5.42;100.00
12172;BME280;6149;52.418;13.668;2024-03-06T10:13:22;102012.75;;;5.64;100.00
12172;BME280;6149;52.418;13.668;2024-03-06T10:15:56;102004.69;;;5.84;100.00
12172;BME280;6149;52.418;13.668;2024-03-06T10:18:26;102011.47;;;6.03;100.00
12172;BME280;6149;52.418;13.668;2024-03-06T10:20:53;102006.22;;;6.04;100.00
12172;BME280;6149;52.418;13.668;2024-03-06T10:23:21;102016.56;;;6.18;100.00
12172;BME280;6149;52.418;13.668;2024-03-06T10:25:49;102012.78;;;6.39;100.00
12172;BME280;6149;52.418;13.668;2024-03-06T10:28:18;102011.84;;;7.04;100.00
12172;BME280;6149;52.418;13.668;2024-03-06T10:30:45;102010.03;;;7.07;100.00
12172;BME280;6149;52.418;13.668;2024-03-06T10:33:13;102015.44;;;7.50;100.00
12172;BME280;6149;52.418;13.668;2024-03-06T10:35:41;102017.56;;;7.79;100.00
12172;BME280;6149;52.418;13.668;2024-03-06T10:38:09;102019.53;;;8.12;100.00
12172;BME280;6149;52.418;13.668;2024-03-06T10:40:39;102019.28;;;8.23;100.00
12172;BME280;6149;52.418;13.668;2024-03-06T10:43:07;102010.28;;;8.34;100.00
12172;BME280;6149;52.418;13.668;2024-03-06T10:45:40;102004.97;;;8.37;100.00
12172;BME280;6149;52.418;13.668;2024-03-06T10:48:08;102000.38;;;8.46;100.00
12172;BME280;6149;52.418;13.668;2024-03-06T10:50:38;102006.28;;;8.57;100.00
12172;BME280;6149;52.418;13.668;2024-03-06T10:53:08;102001.59;;;8.69;100.00
12172;BME280;6149;52.418;13.668;2024-03-06T10:55:35;102006.91;;;8.68;100.00
12172;BME280;6149;52.418;13.668;2024-03-06T10:58:05;102000.13;;;8.56;100.00
12172;BME280;6149;52.418;13.668;2024-03-06T11:00:35;101997.00;;;8.39;100.00
12172;BME280;6149;52.418;13.668;2024-03-06T11:03:05;102004.22;;;8.29;100.00
12172;BME280;6149;52.418;13.668;2024-03-06T11:05:34;102004.13;;;8.35;100.00
12172;BME280;6149;52.418;13.668;2024-03-06T11:08:02;102004.75;;;8.03;100.00
12172;BME280;6149;52.418;13.668;2024-03-06T11:10:30;102006.72;;;7.92;100.00
12172;BME280;6149;52.418;13.668;2024-03-06T11:13:00;102009.25;;;7.98;100.00
12172;BME280;6149;52.418;13.668;2024-03-06T11:15:28;102012.97;;;7.87;100.00
12172;BME280;6149;52.418;13.668;2024-03-06T11:17:54;102007.66;;;7.90;100.00
12172;BME280;6149;52.418;13.668;2024-03-06T11:20:21;102022.69;;;7.85;100.00
12172;BME280;6149;52.418;13.668;2024-03-06T11:23:04;102013.00;;;7.85;100.00
12172;BME280;6149;52.418;13.668;2024-03-06T11:26:10;102003.81;;;8.08;100.00
12172;BME280;6149;52.418;13.668;2024-03-06T11:28:38;102002.13;;;8.03;100.00
12172;BME280;6149;52.418;13.668;2024-03-06T11:31:07;102002.63;;;8.21;100.00
12172;BME280;6149;52.418;13.668;2024-03-06T11:33:37;101995.50;;;8.26;100.00
12172;BME280;6149;52.418;13.668;2024-03-06T11:36:14;101990.31;;;8.21;100.00
12172;BME280;6149;52.418;13.668;2024-03-06T11:38:52;101997.25;;;8.25;100.00
12172;BME280;6149;52.418;13.668;2024-03-06T11:41:20;101995.41;;;8.30;100.00
12172;BME280;6149;52.418;13.668;2024-03-06T11:43:49;101996.47;;;8.22;100.00
12172;BME280;6149;52.418;13.668;2024-03-06T11:46:18;101991.28;;;8.17;100.00
12172;BME280;6149;52.418;13.668;2024-03-06T11:48:52;102000.16;;;8.15;100.00
12172;BME280;6149;52.418;13.668;2024-03-06T11:51:20;101999.16;;;8.19;100.00
12172;BME280;6149;52.418;13.668;2024-03-06T11:53:49;101994.09;;;8.10;100.00
12172;BME280;6149;52.418;13.668;2024-03-06T11:56:17;101997.81;;;7.99;100.00
12172;BME280;6149;52.418;13.668;2024-03-06T11:58:45;101994.38;;;7.96;100.00
12172;BME280;6149;52.418;13.668;2024-03-06T12:01:13;101994.38;;;7.96;100.00
12172;BME280;6149;52.418;13.668;2024-03-06T12:03:41;102009.88;;;8.11;100.00
12172;BME280;6149;52.418;13.668;2024-03-06T12:06:09;102000.28;;;8.09;100.00
12172;BME280;6149;52.418;13.668;2024-03-06T12:08:35;101999.38;;;8.10;100.00
12172;BME280;6149;52.418;13.668;2024-03-06T12:11:04;101987.47;;;8.32;100.00
12172;BME280;6149;52.418;13.668;2024-03-06T12:13:31;101987.75;;;8.18;100.00
12172;BME280;6149;52.418;13.668;2024-03-06T12:15:57;101995.41;;;8.30;100.00
12172;BME280;6149;52.418;13.668;2024-03-06T12:18:25;101988.59;;;8.20;100.00
12172;BME280;6149;52.418;13.668;2024-03-06T12:20:52;101996.63;;;8.16;100.00
12172;BME280;6149;52.418;13.668;2024-03-06T12:23:20;101985.94;;;8.20;100.00
12172;BME280;6149;52.418;13.668;2024-03-06T12:25:48;101991.13;;;8.25;100.00
12172;BME280;6149;52.418;13.668;2024-03-06T12:28:15;101990.22;;;8.26;100.00
12172;BME280;6149;52.418;13.668;2024-03-06T12:30:43;101986.81;;;8.21;100.00
12172;BME280;6149;52.418;13.668;2024-03-06T12:33:10;101995.59;;;8.21;100.00
12172;BME280;6149;52.418;13.668;2024-03-06T12:35:41;101992.75;;;8.33;100.00
12172;BME280;6149;52.418;13.668;2024-03-06T12:38:11;101983.91;;;8.36;100.00
12172;BME280;6149;52.418;13.668;2024-03-06T12:40:39;101981.41;;;8.28;100.00
12172;BME280;6149;52.418;13.668;2024-03-06T12:43:05;101983.91;;;8.36;100.00
12172;BME280;6149;52.418;13.668;2024-03-06T12:45:32;101985.38;;;8.49;100.00